Time;durP1;ratioP1;P1;durP2;ratioP2;P2;SDS_P1;SDS_P2;PMS_P1;PMS_P2;Temp;Humidity;BMP_temperature;BMP_pressure;BME280_temperature;BME280_humidity;BME280_pressure;Samples;Min_cycle;Max_cycle;Signal;HPM_P1;HPM_P2
2021/03/20 00:00:38;;;;;;;8.87;4.77;;;;;;;-2.71;80.13;99838.09;5072050;28;20041;-81
2021/03/20 00:03:05;;;;;;;10.10;5.57;;;;;;;-2.86;80.01;99828.25;5054509;28;20079;-81
2021/03/20 00:05:31;;;;;;;10.23;4.97;;;;;;;-2.81;80.47;99836.88;5052319;28;20665;-81
2021/03/20 00:07:58;;;;;;;14.07;7.07;;;;;;;-2.88;80.60;99806.22;5052352;28;20575;-81
2021/03/20 00:10:25;;;;;;;7.43;4.87;;;;;;;-2.72;79.90;99832.84;5053661;28;20067;-81
2021/03/20 00:12:54;;;;;;;10.23;5.97;;;;;;;-2.83;79.50;99835.22;5052745;28;20061;-80
2021/03/20 00:15:25;;;;;;;11.30;5.97;;;;;;;-3.11;80.84;99824.28;5053918;28;20444;-81
2021/03/20 00:17:59;;;;;;;12.83;5.87;;;;;;;-2.90;80.73;99846.19;5052022;28;20079;-81
2021/03/20 00:20:29;;;;;;;9.23;4.93;;;;;;;-2.97;80.51;99849.28;5052456;28;20151;-81
2021/03/20 00:22:55;;;;;;;8.43;5.47;;;;;;;-3.03;80.11;99843.34;5052353;28;20053;-81
2021/03/20 00:25:22;;;;;;;11.03;5.70;;;;;;;-3.16;80.90;99839.63;5057761;28;20219;-80
2021/03/20 00:27:49;;;;;;;9.60;5.00;;;;;;;-3.17;80.54;99827.25;5053160;28;20110;-81
2021/03/20 00:30:18;;;;;;;7.90;4.90;;;;;;;-3.18;80.49;99827.34;5050254;28;20523;-80
2021/03/20 00:32:47;;;;;;;9.43;4.97;;;;;;;-3.21;80.93;99831.91;5051237;28;20088;-80
2021/03/20 00:35:16;;;;;;;10.67;6.03;;;;;;;-3.01;80.73;99853.91;5039056;28;20497;-81
2021/03/20 00:37:42;;;;;;;11.90;6.40;;;;;;;-3.06;80.13;99845.31;5049485;28;20107;-80
2021/03/20 00:40:12;;;;;;;10.47;5.47;;;;;;;-3.30;80.84;99839.47;5052293;28;20053;-81
2021/03/20 00:42:38;;;;;;;10.45;5.75;;;;;;;-3.33;81.92;99835.16;5052616;28;20463;-81
2021/03/20 00:45:06;;;;;;;9.90;5.23;;;;;;;-3.27;80.92;99847.28;5071941;28;20048;-80
2021/03/20 00:47:34;;;;;;;10.40;6.00;;;;;;;-3.34;80.87;99844.13;5053876;28;20060;-80
2021/03/20 00:50:00;;;;;;;9.40;5.60;;;;;;;-3.30;79.90;99843.00;5052413;28;20452;-80
2021/03/20 00:52:26;;;;;;;9.47;5.23;;;;;;;-3.43;80.54;99825.97;5051252;28;20428;-80
2021/03/20 00:54:52;;;;;;;13.73;6.27;;;;;;;-3.42;80.79;99847.16;5063034;28;20378;-80
2021/03/20 00:57:19;;;;;;;10.00;5.50;;;;;;;-3.43;80.98;99841.94;5051862;28;20401;-80
2021/03/20 00:59:47;;;;;;;9.10;5.37;;;;;;;-3.29;80.96;99855.34;5060061;28;20052;-80
2021/03/20 01:02:13;;;;;;;10.97;5.90;;;;;;;-3.40;81.73;99836.47;5051891;28;20683;-80
2021/03/20 01:04:41;;;;;;;10.80;5.63;;;;;;;-3.44;81.92;99843.72;5051228;28;20052;-80
2021/03/20 01:07:07;;;;;;;13.13;6.30;;;;;;;-3.46;82.26;99848.25;5051694;28;20041;-80
2021/03/20 01:09:34;;;;;;;9.27;5.30;;;;;;;-3.31;81.74;99859.91;5052002;28;20130;-80
2021/03/20 01:12:01;;;;;;;11.50;5.97;;;;;;;-3.42;81.80;99846.28;5066730;28;20049;-80
2021/03/20 01:14:28;;;;;;;10.30;5.40;;;;;;;-3.46;81.20;99837.63;5051016;28;20052;-80
2021/03/20 01:16:54;;;;;;;12.00;6.10;;;;;;;-3.40;81.28;99844.44;5054645;28;20052;-80
2021/03/20 01:19:21;;;;;;;11.30;5.60;;;;;;;-3.50;81.97;99857.31;5049946;28;20049;-80
2021/03/20 01:21:48;;;;;;;9.30;5.57;;;;;;;-3.61;82.22;99838.44;5051795;28;20064;-80
2021/03/20 01:24:14;;;;;;;11.80;5.50;;;;;;;-3.57;82.18;99845.28;5050775;28;20036;-81
2021/03/20 01:26:41;;;;;;;11.37;6.10;;;;;;;-3.51;82.00;99860.06;5051933;28;20107;-81
2021/03/20 01:29:07;;;;;;;21.00;6.33;;;;;;;-3.56;82.24;99858.50;5051219;28;20738;-81
2021/03/20 01:31:34;;;;;;;9.77;5.77;;;;;;;-3.60;82.05;99854.28;5051266;28;20044;-81
2021/03/20 01:34:00;;;;;;;14.33;5.60;;;;;;;-3.60;82.15;99856.06;5054781;28;20048;-81
2021/03/20 01:36:27;;;;;;;16.07;5.67;;;;;;;-3.65;82.82;99851.00;5050400;28;20045;-81
2021/03/20 01:38:54;;;;;;;9.77;5.13;;;;;;;-3.57;82.68;99862.09;5051495;28;20057;-81
2021/03/20 01:41:23;;;;;;;10.90;5.57;;;;;;;-3.56;82.14;99874.44;5051209;28;20436;-81
2021/03/20 01:43:51;;;;;;;9.52;5.78;;;;;;;-3.50;82.00;99870.63;5051331;28;20204;-81
2021/03/20 01:46:41;;;;;;;14.30;6.17;;;;;;;-3.42;82.35;99872.88;5049884;28;20047;-81
2021/03/20 01:49:18;;;;;;;9.60;5.43;;;;;;;-3.46;82.64;99871.31;5058267;28;20053;-81
2021/03/20 01:52:02;;;;;;;11.80;6.03;;;;;;;-3.51;82.97;99870.69;5057721;28;20566;-81
2021/03/20 01:54:36;;;;;;;16.20;6.57;;;;;;;-3.47;82.78;99856.31;5050595;28;20049;-81
2021/03/20 01:57:04;;;;;;;12.07;5.87;;;;;;;-3.42;82.58;99862.25;5050527;28;20040;-81
2021/03/20 01:59:30;;;;;;;14.70;6.10;;;;;;;-3.36;83.43;99858.41;5051065;28;20052;-81
2021/03/20 02:01:57;;;;;;;14.30;6.30;;;;;;;-3.29;83.42;99878.44;5050643;28;20063;-81
2021/03/20 02:04:23;;;;;;;13.50;6.63;;;;;;;-3.30;83.63;99869.56;5049605;28;20068;-81
2021/03/20 02:06:50;;;;;;;10.97;5.90;;;;;;;-3.29;83.93;99870.47;5060785;28;20080;-81
2021/03/20 02:09:17;;;;;;;9.10;5.20;;;;;;;-3.25;84.18;99853.38;5058081;28;20230;-81
2021/03/20 02:11:50;;;;;;;15.13;7.87;;;;;;;-3.18;84.22;99851.28;5055560;28;20053;-81
2021/03/20 02:14:31;;;;;;;14.17;6.33;;;;;;;-3.13;84.06;99866.06;5058703;28;20516;-81
2021/03/20 02:17:05;;;;;;;15.60;7.03;;;;;;;-3.16;84.20;99857.38;5039896;28;20044;-80
2021/03/20 02:19:51;;;;;;;15.43;6.47;;;;;;;-3.07;83.39;99852.44;5037566;28;20887;-80
2021/03/20 02:22:24;;;;;;;11.63;7.50;;;;;;;-3.00;83.71;99841.47;5050611;28;20068;-81
2021/03/20 02:25:25;;;;;;;11.67;6.57;;;;;;;-2.89;83.57;99868.34;5051208;28;20049;-81
2021/03/20 02:28:26;;;;;;;11.17;6.30;;;;;;;-3.10;84.11;99833.09;5025713;28;20072;-81
2021/03/20 02:31:23;;;;;;;10.47;5.90;;;;;;;-2.87;84.46;99863.81;5036937;28;20107;-81
2021/03/20 02:34:03;;;;;;;11.43;5.80;;;;;;;-2.80;84.76;99841.25;5048971;28;20049;-81
2021/03/20 02:36:36;;;;;;;10.07;7.13;;;;;;;-2.56;84.73;99856.81;5054282;28;20075;-81
2021/03/20 02:39:12;;;;;;;11.43;5.63;;;;;;;-2.69;84.98;99857.50;5050468;28;20405;-81
2021/03/20 02:41:47;;;;;;;11.77;6.50;;;;;;;-2.55;84.56;99843.41;5050401;28;20516;-81
2021/03/20 02:44:19;;;;;;;10.60;5.10;;;;;;;-2.67;84.72;99852.06;5049079;28;20080;-81
2021/03/20 02:46:52;;;;;;;13.03;6.03;;;;;;;-2.70;84.59;99845.09;5061200;28;20041;-81
2021/03/20 02:49:25;;;;;;;9.50;5.80;;;;;;;-2.59;84.54;99851.66;5050716;28;20052;-81
2021/03/20 02:51:57;;;;;;;12.27;5.60;;;;;;;-2.62;84.25;99843.84;5055409;28;20102;-80
2021/03/20 02:54:31;;;;;;;11.20;5.93;;;;;;;-2.78;84.97;99831.38;5049804;28;20171;-81
2021/03/20 02:57:02;;;;;;;8.37;5.40;;;;;;;-2.74;85.03;99851.56;5057548;28;20576;-81
2021/03/20 02:59:33;;;;;;;11.83;6.13;;;;;;;-2.71;84.91;99858.50;5050194;28;20140;-81
2021/03/20 03:02:05;;;;;;;13.90;6.37;;;;;;;-2.54;84.39;99854.94;5050573;28;20045;-81
2021/03/20 03:04:35;;;;;;;11.80;6.70;;;;;;;-2.63;84.41;99837.66;5049376;28;20122;-81
2021/03/20 03:07:06;;;;;;;10.20;5.93;;;;;;;-2.52;84.55;99853.88;5049928;28;20508;-81
2021/03/20 03:09:39;;;;;;;11.57;5.27;;;;;;;-2.60;84.68;99848.16;5049927;28;20424;-81
2021/03/20 03:12:11;;;;;;;14.63;5.70;;;;;;;-2.53;84.35;99848.66;5050406;28;20041;-81
2021/03/20 03:14:42;;;;;;;11.87;6.17;;;;;;;-2.53;83.84;99857.50;5049641;28;20045;-81
2021/03/20 03:17:09;;;;;;;13.40;6.20;;;;;;;-2.58;83.89;99843.59;5049976;28;20053;-81
2021/03/20 03:19:41;;;;;;;10.53;5.83;;;;;;;-2.56;83.80;99868.34;5055492;28;20053;-81
2021/03/20 03:22:11;;;;;;;13.27;6.70;;;;;;;-2.59;83.87;99871.16;5049562;28;20504;-81
2021/03/20 03:24:41;;;;;;;9.50;5.90;;;;;;;-2.54;84.34;99869.09;5042116;28;20056;-81
2021/03/20 03:27:12;;;;;;;10.53;6.63;;;;;;;-2.47;83.80;99876.75;5050302;28;20049;-81
2021/03/20 03:29:38;;;;;;;8.73;5.27;;;;;;;-2.61;84.17;99861.53;5050108;28;20064;-81
2021/03/20 03:32:14;;;;;;;9.20;5.70;;;;;;;-2.51;84.14;99886.72;5049387;28;20559;-81
2021/03/20 03:34:49;;;;;;;8.60;5.03;;;;;;;-2.54;83.88;99887.75;5049087;28;20512;-80
2021/03/20 03:37:20;;;;;;;10.70;6.23;;;;;;;-2.68;84.61;99874.31;5049467;28;20136;-79
2021/03/20 03:39:51;;;;;;;11.17;5.73;;;;;;;-2.62;84.17;99889.09;5049909;28;20060;-78
2021/03/20 03:42:19;;;;;;;9.43;5.13;;;;;;;-2.70;84.41;99884.19;5049254;28;20045;-80
2021/03/20 03:44:50;;;;;;;11.10;5.73;;;;;;;-2.71;84.34;99888.66;5048514;28;20045;-79
2021/03/20 03:47:19;;;;;;;10.77;5.63;;;;;;;-2.53;84.00;99897.47;5052287;28;20045;-79
2021/03/20 03:49:46;;;;;;;9.73;5.90;;;;;;;-2.77;84.19;99885.44;5050684;28;20056;-79
2021/03/20 03:52:13;;;;;;;8.77;5.03;;;;;;;-2.74;83.90;99875.53;5061589;28;20045;-79
2021/03/20 03:54:41;;;;;;;10.00;5.20;;;;;;;-2.71;84.01;99896.66;5066583;28;20110;-80
2021/03/20 03:57:37;;;;;;;11.60;5.33;;;;;;;-2.76;84.25;99885.38;5075941;28;20052;-79
2021/03/20 04:00:13;;;;;;;7.50;4.63;;;;;;;-2.64;85.13;99898.97;5058524;28;20045;-79
2021/03/20 04:02:52;;;;;;;9.17;5.17;;;;;;;-2.67;84.47;99894.66;5046655;28;20049;-79
2021/03/20 04:05:25;;;;;;;12.37;5.17;;;;;;;-2.73;84.99;99895.00;5052600;28;20057;-81
2021/03/20 04:08:01;;;;;;;9.23;4.50;;;;;;;-2.79;84.54;99898.00;5055132;28;20094;-80
2021/03/20 04:10:34;;;;;;;7.53;4.80;;;;;;;-2.88;84.85;99892.19;5035346;28;20053;-80
2021/03/20 04:13:11;;;;;;;8.43;5.60;;;;;;;-2.92;84.93;99871.16;5036788;28;20053;-80
2021/03/20 04:15:52;;;;;;;10.10;5.33;;;;;;;-2.80;84.99;99883.84;5034414;28;20056;-80
2021/03/20 04:18:28;;;;;;;7.73;5.23;;;;;;;-2.96;84.99;99889.09;5036258;28;20049;-81
2021/03/20 04:21:06;;;;;;;10.10;5.40;;;;;;;-3.01;84.76;99877.88;5050349;28;20056;-81
2021/03/20 04:23:36;;;;;;;8.23;4.73;;;;;;;-2.95;84.73;99890.84;5049410;28;20076;-81
2021/03/20 04:26:08;;;;;;;9.73;4.80;;;;;;;-3.07;84.07;99875.50;5039130;28;20102;-80
2021/03/20 04:28:44;;;;;;;7.23;4.97;;;;;;;-2.89;84.03;99900.28;5048929;28;20049;-80
2021/03/20 04:31:15;;;;;;;9.80;5.00;;;;;;;-3.16;84.69;99905.25;5062133;28;20048;-81
2021/03/20 04:33:47;;;;;;;7.23;4.57;;;;;;;-3.10;84.64;99921.75;5062339;28;20044;-81
2021/03/20 04:36:18;;;;;;;9.53;4.77;;;;;;;-3.17;84.38;99928.34;5051536;28;20044;-81
2021/03/20 04:38:46;;;;;;;7.70;4.67;;;;;;;-3.36;84.57;99912.44;5052625;28;20056;-81
2021/03/20 04:41:13;;;;;;;7.73;4.53;;;;;;;-3.29;84.62;99927.16;5051548;28;20512;-81
2021/03/20 04:43:41;;;;;;;10.90;4.70;;;;;;;-3.29;84.60;99918.31;5052612;28;20414;-81
2021/03/20 04:46:16;;;;;;;10.20;5.07;;;;;;;-3.22;83.98;99931.22;5051382;28;20060;-80
2021/03/20 04:48:47;;;;;;;7.37;5.10;;;;;;;-3.41;84.09;99902.03;5057651;28;20111;-80
2021/03/20 04:51:31;;;;;;;9.93;4.90;;;;;;;-3.24;84.48;99922.47;5051629;28;20041;-80
2021/03/20 04:54:06;;;;;;;9.17;5.17;;;;;;;-3.43;84.33;99906.59;5053024;28;20420;-80
2021/03/20 04:56:39;;;;;;;6.43;4.20;;;;;;;-3.40;84.61;99919.72;5051622;28;20144;-80
2021/03/20 04:59:10;;;;;;;11.07;4.30;;;;;;;-3.45;84.60;99908.44;5051357;28;20107;-80
2021/03/20 05:01:43;;;;;;;11.63;5.73;;;;;;;-3.43;85.06;99905.75;5051561;28;20053;-80
2021/03/20 05:04:19;;;;;;;7.13;4.27;;;;;;;-3.54;84.95;99908.91;5050379;28;20543;-80
2021/03/20 05:06:49;;;;;;;8.93;5.80;;;;;;;-3.55;85.81;99899.25;5051151;28;20053;-80
2021/03/20 05:09:20;;;;;;;9.20;5.30;;;;;;;-3.43;85.83;99917.22;5051724;28;20056;-80
2021/03/20 05:11:53;;;;;;;10.33;5.63;;;;;;;-3.48;85.11;99918.38;5051966;28;20045;-80
2021/03/20 05:14:26;;;;;;;8.37;5.47;;;;;;;-3.64;85.77;99915.66;5053937;28;20048;-81
2021/03/20 05:16:55;;;;;;;10.03;5.50;;;;;;;-3.56;86.09;99924.94;5040232;28;20293;-81
2021/03/20 05:19:23;;;;;;;9.93;5.13;;;;;;;-3.44;85.29;99920.81;5049943;28;20053;-81
2021/03/20 05:21:51;;;;;;;15.70;6.20;;;;;;;-3.45;85.27;99902.28;5066208;28;20075;-81
2021/03/20 05:24:20;;;;;;;9.90;5.73;;;;;;;-3.18;85.15;99929.25;5051078;28;20045;-81
2021/03/20 05:26:47;;;;;;;8.85;6.00;;;;;;;-3.20;84.20;99910.72;5051716;28;20067;-81
2021/03/20 05:29:13;;;;;;;9.40;4.30;;;;;;;-3.14;83.92;99929.97;5051408;28;20072;-80
2021/03/20 05:31:40;;;;;;;9.03;3.67;;;;;;;-3.19;83.59;99930.22;5051383;28;20056;-80
2021/03/20 05:34:18;;;;;;;8.57;4.40;;;;;;;-3.11;83.14;99928.00;5050863;28;20056;-81
2021/03/20 05:36:47;;;;;;;7.83;4.03;;;;;;;-3.05;82.93;99932.16;5044065;28;20045;-81
2021/03/20 05:39:16;;;;;;;7.63;3.90;;;;;;;-2.96;82.77;99925.50;5051220;28;20041;-80
2021/03/20 05:41:58;;;;;;;5.07;3.37;;;;;;;-3.01;82.55;99920.44;5051161;28;20041;-80
2021/03/20 05:44:42;;;;;;;5.83;3.57;;;;;;;-2.93;82.18;99931.50;5050234;28;20159;-80
2021/03/20 05:47:21;;;;;;;9.20;3.40;;;;;;;-2.77;81.65;99933.38;5050329;28;20103;-79
2021/03/20 05:49:59;;;;;;;6.93;3.70;;;;;;;-2.73;81.29;99933.13;5059378;28;20060;-79
2021/03/20 05:52:51;;;;;;;7.33;3.83;;;;;;;-2.74;81.14;99951.81;5050896;28;20056;-80
2021/03/20 05:55:28;;;;;;;8.57;3.50;;;;;;;-2.75;81.86;99942.16;5058587;28;20481;-82
2021/03/20 05:58:04;;;;;;;7.10;3.67;;;;;;;-2.93;81.59;99923.53;5051011;28;20052;-80
2021/03/20 06:00:40;;;;;;;4.43;2.70;;;;;;;-2.88;80.26;99921.47;5056366;28;20400;-81
2021/03/20 06:03:34;;;;;;;6.10;3.57;;;;;;;-2.75;79.83;99920.84;5051278;28;20053;-80
2021/03/20 06:06:04;;;;;;;5.97;3.70;;;;;;;-2.68;80.10;99952.38;5049181;28;20400;-80
2021/03/20 06:08:48;;;;;;;;;;;;;;;-2.49;79.38;99959.38;5051165;28;20088;-80
2021/03/20 06:11:28;;;;;;;5.63;3.43;;;;;;;-2.50;79.54;99953.19;5049803;28;19924;-79
2021/03/20 06:14:02;;;;;;;;;;;;;;;-2.40;79.74;99960.69;5051208;28;20386;-81
2021/03/20 06:16:33;;;;;;;6.17;3.47;;;;;;;-2.38;80.18;99964.13;5049886;28;19979;-81
2021/03/20 06:19:27;;;;;;;5.90;3.47;;;;;;;-2.36;80.06;99967.56;5049189;28;20053;-82
2021/03/20 06:22:22;;;;;;;8.17;4.13;;;;;;;-2.32;80.00;99963.78;5050044;28;20107;-81
2021/03/20 06:25:12;;;;;;;9.47;4.57;;;;;;;-2.07;79.22;99981.09;5049760;28;20087;-82
2021/03/20 06:27:45;;;;;;;7.80;4.68;;;;;;;-1.97;77.85;99982.31;5049807;28;20063;-82
2021/03/20 06:30:26;;;;;;;4.93;3.40;;;;;;;-2.15;77.20;99976.22;5035821;28;20094;-81
2021/03/20 06:32:56;;;;;;;4.73;3.63;;;;;;;-2.13;76.56;99979.63;5046666;28;20059;-81
2021/03/20 06:35:32;;;;;;;4.38;3.92;;;;;;;-2.09;76.77;99990.97;5049495;28;20504;-81
2021/03/20 06:38:02;;;;;;;4.47;3.83;;;;;;;-1.98;75.91;99980.59;5049543;28;20056;-82
2021/03/20 06:40:41;;;;;;;5.35;3.13;;;;;;;-1.87;75.82;99994.16;5050661;28;20049;-81
2021/03/20 06:43:10;;;;;;;5.88;4.03;;;;;;;-1.93;75.27;99994.50;5048432;28;20052;-82
2021/03/20 06:45:37;;;;;;;6.68;4.00;;;;;;;-1.85;75.75;100000.28;5040072;28;20045;-82
2021/03/20 06:48:11;;;;;;;5.23;3.43;;;;;;;-1.62;74.05;99993.66;5048916;28;20048;-82
2021/03/20 06:50:42;;;;;;;5.37;3.50;;;;;;;-1.67;74.05;99997.53;5049040;28;20052;-81
2021/03/20 06:53:11;;;;;;;9.13;3.10;;;;;;;-1.56;73.18;100019.13;5050541;28;20306;-82
2021/03/20 06:55:41;;;;;;;5.18;3.78;;;;;;;-1.40;72.84;100004.91;5049115;28;20049;-82
2021/03/20 06:58:16;;;;;;;4.72;3.22;;;;;;;-1.40;73.23;99995.13;5050194;28;20053;-82
2021/03/20 07:00:44;;;;;;;3.90;3.27;;;;;;;-1.26;71.37;100015.66;5049622;28;20053;-82
2021/03/20 07:03:49;;;;;;;5.87;3.63;;;;;;;-1.23;71.63;100007.47;5049412;28;20493;-82
2021/03/20 07:06:26;;;;;;;4.53;3.20;;;;;;;-1.12;70.34;99997.00;5049311;28;20135;-82
2021/03/20 07:08:55;;;;;;;4.97;3.80;;;;;;;-0.98;70.10;100009.56;5044918;28;20531;-81
2021/03/20 07:11:27;;;;;;;3.78;3.17;;;;;;;-1.12;71.06;100005.03;5051024;28;20045;-81
2021/03/20 07:13:59;;;;;;;4.53;3.20;;;;;;;-1.14;71.27;100009.59;5052065;28;20076;-81
2021/03/20 07:16:31;;;;;;;5.30;3.30;;;;;;;-0.95;68.36;100020.06;5051435;28;20063;-82
2021/03/20 07:19:11;;;;;;;7.43;3.50;;;;;;;-0.81;68.92;100019.25;5049578;28;20549;-82
2021/03/20 07:21:39;;;;;;;3.97;3.08;;;;;;;-0.54;67.77;100023.88;5048834;28;20049;-82
2021/03/20 07:24:11;;;;;;;5.60;3.00;;;;;;;-0.57;68.02;99997.38;5049275;28;20056;-81
2021/03/20 07:26:55;;;;;;;4.60;2.30;;;;;;;-0.46;65.57;99996.69;5049866;28;20045;-82
2021/03/20 07:29:42;;;;;;;2.30;2.10;;;;;;;-0.54;63.86;99991.84;5047733;28;20147;-82
2021/03/20 07:32:12;;;;;;;3.80;2.67;;;;;;;-0.58;65.36;100019.66;5046798;28;20081;-82
2021/03/20 07:34:49;;;;;;;6.00;2.83;;;;;;;-0.67;66.14;100007.72;5045912;28;20037;-82
2021/03/20 07:37:27;;;;;;;3.90;2.63;;;;;;;-0.47;64.90;100024.34;5055939;28;20407;-83
2021/03/20 07:39:57;;;;;;;4.03;2.70;;;;;;;-0.30;63.80;100000.16;5055024;28;20063;-82
2021/03/20 07:42:34;;;;;;;3.43;2.70;;;;;;;-0.33;63.69;100036.88;5055778;28;20045;-82
2021/03/20 07:45:05;;;;;;;3.50;2.60;;;;;;;-0.66;63.21;100014.81;5051459;28;20076;-82
2021/03/20 07:47:36;;;;;;;3.13;2.77;;;;;;;-0.36;63.38;100038.78;5052955;28;20060;-82
2021/03/20 07:50:25;;;;;;;3.63;2.63;;;;;;;-0.20;64.77;100016.44;5053518;28;20056;-82
2021/03/20 07:53:08;;;;;;;5.47;2.90;;;;;;;-0.48;64.40;100034.19;5045367;28;20056;-82
2021/03/20 07:55:57;;;;;;;3.53;2.57;;;;;;;-0.33;64.58;100034.19;5044900;28;20069;-83
2021/03/20 07:58:29;;;;;;;2.07;1.87;;;;;;;-0.13;62.37;100065.91;5052895;28;20127;-83
2021/03/20 08:01:05;;;;;;;6.97;2.60;;;;;;;-0.07;63.35;100045.97;5051900;28;20477;-82
2021/03/20 08:03:34;;;;;;;5.67;3.70;;;;;;;0.00;62.76;100052.66;5050640;28;20052;-82
2021/03/20 08:06:13;;;;;;;5.90;3.37;;;;;;;0.15;59.69;100077.56;5042490;28;20060;-82
2021/03/20 08:08:42;;;;;;;3.50;2.22;;;;;;;-0.13;55.45;100073.06;5049916;28;20053;-82
2021/03/20 08:11:31;;;;;;;3.70;2.17;;;;;;;-0.25;57.92;100072.00;5053414;28;20045;-82
2021/03/20 08:14:04;;;;;;;4.57;2.30;;;;;;;-0.07;56.26;100067.34;5046684;28;20057;-80
2021/03/20 08:16:32;;;;;;;2.93;1.93;;;;;;;-0.16;54.35;100014.47;5050637;28;20049;-81
2021/03/20 08:19:01;;;;;;;4.03;2.60;;;;;;;0.01;52.76;100035.63;5051319;28;20095;-80
2021/03/20 08:21:59;;;;;;;4.93;2.47;;;;;;;-0.24;52.03;100066.56;5053149;28;20103;-82
2021/03/20 08:24:41;;;;;;;2.37;1.90;;;;;;;-0.29;52.23;100049.94;5051625;28;21668;-80
2021/03/20 08:27:16;;;;;;;7.37;2.30;;;;;;;0.01;54.73;100053.50;5051468;28;20053;-81
2021/03/20 08:30:14;;;;;;;3.90;2.00;;;;;;;0.22;54.20;100070.88;5052373;28;20049;-81
2021/03/20 08:33:18;;;;;;;6.93;2.40;;;;;;;0.42;53.51;100082.13;5051246;28;20049;-81
2021/03/20 08:35:55;;;;;;;3.43;1.80;;;;;;;0.25;51.82;100077.84;5016961;28;20045;-78
2021/03/20 08:38:46;;;;;;;5.17;2.13;;;;;;;0.07;49.15;100087.88;5053571;28;20516;-80
2021/03/20 08:41:27;;;;;;;3.43;2.23;;;;;;;-0.05;47.46;100095.69;5053680;28;20067;-81
2021/03/20 08:44:20;;;;;;;5.10;2.00;;;;;;;0.12;49.95;100100.00;5052045;28;20053;-81
2021/03/20 08:47:09;;;;;;;3.17;1.83;;;;;;;0.11;50.49;100074.22;5052343;28;20505;-79
2021/03/20 08:50:02;;;;;;;4.47;2.75;;;;;;;0.34;49.49;100088.81;5054269;28;20049;-80
2021/03/20 08:52:38;;;;;;;2.43;2.10;;;;;;;0.59;51.49;100087.25;5053475;28;20045;-81
2021/03/20 08:55:36;;;;;;;2.47;1.90;;;;;;;0.74;48.61;100084.53;5050727;28;20460;-81
2021/03/20 08:58:32;;;;;;;4.53;2.07;;;;;;;0.82;47.19;100068.84;5050061;28;20045;-81
2021/03/20 09:01:04;;;;;;;1.53;1.30;;;;;;;0.68;48.20;100093.84;5051999;28;20132;-81
2021/03/20 09:03:38;;;;;;;3.37;2.27;;;;;;;0.64;45.39;100074.44;5052462;28;20075;-81
2021/03/20 09:06:17;;;;;;;2.97;1.53;;;;;;;0.78;48.57;100086.06;5031946;28;20080;-82
2021/03/20 09:08:44;;;;;;;3.53;2.07;;;;;;;0.86;47.89;100083.75;5050400;28;20408;-80
2021/03/20 09:11:22;;;;;;;1.20;1.13;;;;;;;0.66;48.85;100088.59;5052169;28;20409;-80
2021/03/20 09:13:57;;;;;;;3.83;1.93;;;;;;;0.70;48.35;100094.59;5051620;28;20408;-81
2021/03/20 09:16:33;;;;;;;3.97;2.20;;;;;;;0.91;48.46;100081.63;5051400;28;20077;-81
2021/03/20 09:19:08;;;;;;;2.47;1.70;;;;;;;1.10;47.10;100077.72;5050288;28;20060;-81
2021/03/20 09:21:40;;;;;;;4.97;1.63;;;;;;;1.11;46.93;100090.16;5051599;28;20053;-81
2021/03/20 09:24:12;;;;;;;3.13;2.30;;;;;;;0.88;46.51;100087.19;5051065;28;20053;-80
2021/03/20 09:26:42;;;;;;;3.80;2.03;;;;;;;1.19;46.30;100103.91;5051663;28;20094;-80
2021/03/20 09:29:17;;;;;;;3.53;1.17;;;;;;;0.93;46.42;100081.53;5051092;28;20049;-82
2021/03/20 09:32:09;;;;;;;2.40;1.87;;;;;;;1.02;46.79;100089.84;5051556;28;20060;-82
2021/03/20 09:34:41;;;;;;;2.73;1.93;;;;;;;1.15;47.98;100089.88;5030988;28;20220;-81
2021/03/20 09:38:00;;;;;;;2.90;1.90;;;;;;;1.36;47.79;100090.25;5050890;28;20056;-82
2021/03/20 09:40:51;;;;;;;9.70;1.80;;;;;;;1.59;45.70;100083.31;5051356;28;20467;-81
2021/03/20 09:43:33;;;;;;;3.10;2.00;;;;;;;1.75;45.56;100088.50;5041929;28;20049;-82
2021/03/20 09:46:37;;;;;;;3.30;2.07;;;;;;;1.63;48.27;100097.38;5050512;28;20057;-82
2021/03/20 09:50:00;;;;;;;3.07;1.63;;;;;;;1.76;48.05;100089.34;5043950;28;20413;-81
2021/03/20 09:52:59;;;;;;;2.77;1.97;;;;;;;1.30;47.66;100087.97;5048679;28;20512;-82
2021/03/20 09:55:47;;;;;;;6.57;1.90;;;;;;;1.20;47.09;100073.47;5050188;28;20609;-82
2021/03/20 09:58:51;;;;;;;4.33;2.17;;;;;;;1.38;48.17;100088.31;5052812;28;20049;-82
2021/03/20 10:01:20;;;;;;;1.90;1.50;;;;;;;1.27;47.28;100098.06;5034958;28;20489;-82
2021/03/20 10:04:18;;;;;;;4.18;1.90;;;;;;;1.35;48.33;100075.13;5051089;28;20055;-83
2021/03/20 10:07:15;;;;;;;3.67;2.00;;;;;;;1.42;46.65;100072.91;5048865;28;20052;-82
2021/03/20 10:09:55;;;;;;;3.27;1.77;;;;;;;1.41;47.14;100079.22;5050827;28;20041;-82
2021/03/20 10:12:25;;;;;;;2.40;2.00;;;;;;;1.57;44.95;100095.97;5051117;28;20061;-83
2021/03/20 10:15:31;;;;;;;4.78;1.85;;;;;;;1.28;46.64;100071.16;5049633;28;20057;-83
2021/03/20 10:18:24;;;;;;;4.00;2.20;;;;;;;1.29;45.55;100074.69;5039348;28;20049;-81
2021/03/20 10:21:23;;;;;;;1.70;1.60;;;;;;;1.20;45.62;100054.72;5050639;28;20135;-81
2021/03/20 10:24:24;;;;;;;5.05;2.17;;;;;;;0.94;46.85;100086.78;5030922;28;20528;-82
2021/03/20 10:27:04;;;;;;;9.27;1.97;;;;;;;0.75;47.93;100071.06;5035100;28;20052;-81
2021/03/20 10:29:36;;;;;;;3.45;1.98;;;;;;;0.94;49.11;100070.72;5049858;28;20052;-82
2021/03/20 10:32:21;;;;;;;2.80;2.13;;;;;;;1.18;48.36;100076.25;5050256;28;20051;-81
2021/03/20 10:34:53;;;;;;;3.20;2.00;;;;;;;1.04;47.48;100062.94;5048895;28;20458;-81
2021/03/20 10:37:31;;;;;;;2.87;1.90;;;;;;;1.12;46.76;100062.44;5051317;28;20086;-81
2021/03/20 10:40:08;;;;;;;4.67;2.20;;;;;;;1.38;46.73;100077.59;5052302;28;20052;-81
2021/03/20 10:42:40;;;;;;;4.30;2.23;;;;;;;1.51;46.57;100082.16;5050686;28;20413;-81
2021/03/20 10:45:16;;;;;;;3.63;2.07;;;;;;;1.50;46.08;100067.88;5049416;28;20063;-81
2021/03/20 10:47:43;;;;;;;2.83;1.90;;;;;;;1.52;46.35;100046.31;5051357;28;20044;-81
2021/03/20 10:50:27;;;;;;;3.50;2.13;;;;;;;1.43;48.69;100050.50;5052455;28;20068;-81
2021/03/20 10:53:01;;;;;;;3.03;1.83;;;;;;;1.71;46.09;100068.22;5051783;28;20088;-80
2021/03/20 10:55:36;;;;;;;3.17;1.97;;;;;;;1.70;48.27;100050.44;5045376;28;20127;-81
2021/03/20 10:58:05;;;;;;;2.27;1.97;;;;;;;1.83;46.37;100046.88;5050226;28;20520;-81
2021/03/20 11:00:44;;;;;;;2.95;2.42;;;;;;;1.97;47.85;100052.13;5052032;28;20052;-82
2021/03/20 11:03:21;;;;;;;2.83;2.23;;;;;;;1.87;45.73;100054.59;5052295;28;20504;-81
2021/03/20 11:05:48;;;;;;;3.70;2.23;;;;;;;1.89;46.13;100054.50;5056021;28;20291;-81
2021/03/20 11:08:25;;;;;;;2.17;1.98;;;;;;;2.01;46.62;100060.84;5055797;28;20052;-81
2021/03/20 11:11:05;;;;;;;3.88;1.70;;;;;;;2.02;45.61;100054.47;5053460;28;20507;-83
2021/03/20 11:13:37;;;;;;;3.10;1.93;;;;;;;1.79;46.74;100043.53;5054326;28;20060;-84
2021/03/20 11:16:08;;;;;;;4.37;2.47;;;;;;;1.91;45.47;100056.13;5049702;28;20171;-84
2021/03/20 11:18:38;;;;;;;3.03;2.13;;;;;;;2.09;45.64;100064.69;5050666;28;20055;-83
2021/03/20 11:21:21;;;;;;;2.67;1.77;;;;;;;2.05;44.88;100051.63;5054240;28;20055;-86
2021/03/20 11:23:55;;;;;;;2.85;2.10;;;;;;;2.03;44.14;100059.75;5053674;28;20080;-83
2021/03/20 11:26:34;;;;;;;2.47;1.70;;;;;;;1.93;45.01;100054.19;5052448;28;20143;-84
2021/03/20 11:29:06;;;;;;;3.00;2.10;;;;;;;1.95;42.63;100052.22;5039434;28;20473;-81
2021/03/20 11:31:40;;;;;;;2.90;1.70;;;;;;;1.99;42.23;100063.63;5053543;28;20080;-84
2021/03/20 11:34:11;;;;;;;2.22;1.98;;;;;;;2.11;42.93;100057.38;5053587;28;20098;-84
2021/03/20 11:36:40;;;;;;;2.75;2.03;;;;;;;2.34;42.32;100056.72;5052753;28;20132;-83
2021/03/20 11:39:09;;;;;;;2.67;2.03;;;;;;;2.35;43.51;100053.03;5053401;28;20493;-84
2021/03/20 11:41:38;;;;;;;3.13;2.53;;;;;;;2.35;40.99;100024.41;5053058;28;20132;-84
2021/03/20 11:44:19;;;;;;;3.97;2.97;;;;;;;2.61;41.41;100053.84;5054222;28;20080;-83
2021/03/20 11:46:51;;;;;;;1.45;1.35;;;;;;;2.52;41.57;100049.16;5055975;28;20159;-84
2021/03/20 11:49:38;;;;;;;3.63;1.98;;;;;;;2.36;40.94;100041.34;5054253;28;20037;-84
2021/03/20 11:52:08;;;;;;;3.97;2.20;;;;;;;2.54;40.04;100041.84;5053055;28;20140;-83
2021/03/20 11:54:38;;;;;;;1.75;1.63;;;;;;;2.60;39.68;100028.81;5052373;28;20049;-85
2021/03/20 11:57:12;;;;;;;3.20;1.83;;;;;;;2.65;41.31;100039.25;5052947;28;20045;-84
2021/03/20 11:59:44;;;;;;;5.10;2.10;;;;;;;2.99;41.76;100031.34;5052501;28;20061;-85
2021/03/20 12:02:13;;;;;;;2.13;1.92;;;;;;;2.88;42.24;100016.06;5053442;28;20045;-84
2021/03/20 12:04:40;;;;;;;3.33;2.13;;;;;;;2.96;42.22;99992.13;5052473;28;20408;-85
2021/03/20 12:07:24;;;;;;;2.30;1.10;;;;;;;2.63;41.64;100012.50;5054014;28;20049;-84
2021/03/20 12:09:52;;;;;;;2.45;1.48;;;;;;;2.93;40.00;100031.81;5055534;28;20053;-83